MSC Benedetta — LXBJ — position and weather

sailwx.info

Track history (hours):
 
Tides and Currents Weather Stations Pressure Air Temp Water Temp Dewpoint Dewpoint Depression Visibility Wind Speed Wind Dir Waves Ship Positions

MSC Benedetta

Last reported at 2017-Nov-19 07:07 UTC. Time now 2017-Dec-16 11:16 UTC.
Position S 29°53' E 031°01'.
Warning: this ship's position is 27 days out of date.

Length 366 m; draft 12.8 m.

Type: Ship (hazmat cat B). MMSI: 253269000.

Date/timePositionNaut miles runAvg speedWind from/ knotsBaromVisibWave heightAir tempDewpointWater temp
2017-Nov-19 07:07S 29°53' E 031°01'0 0.0
2017-Nov-19 06:56S 29°53' E 031°01'0 0.0
2017-Nov-19 06:29S 29°53' E 031°01'0 0.0
2017-Nov-19 05:59S 29°53' E 031°01'0 0.0
2017-Nov-19 05:25S 29°53' E 031°01'0 0.0
2017-Nov-19 04:56S 29°53' E 031°01'0 0.0
2017-Nov-19 04:28S 29°53' E 031°01'0 0.0
2017-Nov-19 03:58S 29°53' E 031°01'0 0.0
2017-Nov-19 03:28S 29°53' E 031°01'0 0.0
2017-Nov-19 02:58S 29°53' E 031°01'0 0.0
2017-Nov-19 02:29S 29°53' E 031°01'0 0.0
2017-Nov-19 01:58S 29°53' E 031°01'0 0.0
2017-Nov-19 01:28S 29°53' E 031°01'0 0.0
2017-Nov-19 00:58S 29°53' E 031°01'0 0.0
2017-Nov-19 00:28S 29°53' E 031°01'0 0.0
2017-Nov-18 23:58S 29°53' E 031°01'0 0.0
2017-Nov-18 23:29S 29°53' E 031°01'0 0.0
2017-Nov-18 22:58S 29°53' E 031°01'0 0.0
2017-Nov-18 22:28S 29°53' E 031°01'0 0.0
2017-Nov-18 21:58S 29°53' E 031°01'0 0.0
2017-Nov-18 21:28S 29°53' E 031°01'0 0.0
2017-Nov-18 20:55S 29°53' E 031°01'0 0.0
2017-Nov-18 20:28S 29°53' E 031°01'0 0.0
2017-Nov-18 19:58S 29°53' E 031°01'0 0.0
2017-Nov-18 19:28S 29°53' E 031°01'0 0.0
2017-Nov-18 18:58S 29°53' E 031°01'0 0.0
2017-Nov-18 18:28S 29°53' E 031°01'0 0.0
2017-Nov-18 17:49S 29°53' E 031°01'0 0.0
2017-Nov-18 17:28S 29°53' E 031°01'0 0.0
2017-Nov-18 16:58S 29°53' E 031°01'0 0.0
2017-Nov-18 16:28S 29°53' E 031°01'19 0.7
2017-Nov-17 11:59S 30°01' E 031°21'3 6.5
2017-Nov-17 11:30S 29°58' E 031°22'3 6.2
2017-Nov-17 11:00S 29°55' E 031°22'3 5.9
2017-Nov-17 10:30S 29°52' E 031°23'2 4.8
2017-Nov-17 10:00S 29°50' E 031°24'4 8.3
2017-Nov-17 09:30S 29°53' E 031°27'5 9.3
2017-Nov-17 09:00S 29°56' E 031°31'5 9.0
2017-Nov-17 08:30S 30°00' E 031°32'611.2
2017-Nov-17 08:00S 30°06' E 031°31'4 8.7
2017-Nov-17 07:30S 30°10' E 031°31'4 8.9
2017-Nov-17 07:00S 30°15' E 031°30'1 2.4
2017-Nov-17 06:29S 30°13' E 031°30'3 7.2
2017-Nov-17 06:00S 30°10' E 031°31'4 7.1
2017-Nov-17 05:30S 30°07' E 031°32'3 6.8
2017-Nov-17 05:00S 30°04' E 031°33'4 7.5
2017-Nov-17 04:30S 29°60' E 031°34'4 7.1
2017-Nov-17 04:00S 29°57' E 031°36'3 6.6
2017-Nov-17 03:30S 29°53' E 031°37'3 6.6
2017-Nov-17 03:00S 29°50' E 031°38'3 6.3
2017-Nov-17 02:30S 29°47' E 031°39'3 5.7
2017-Nov-17 02:00S 29°45' E 031°40'3 5.6
2017-Nov-17 01:30S 29°42' E 031°40'2 4.8
2017-Nov-17 01:00S 29°39' E 031°41'3 6.1
2017-Nov-17 00:30S 29°37' E 031°42'3 5.8
2017-Nov-17 00:00S 29°34' E 031°44'2 5.0
2017-Nov-16 23:31S 29°32' E 031°45'5 9.7
2017-Nov-16 23:00S 29°36' E 031°43'5 9.1
2017-Nov-16 22:30S 29°41' E 031°43'5 9.0
2017-Nov-16 22:00S 29°45' E 031°42'4 8.9
2017-Nov-16 21:30S 29°50' E 031°41'4 8.6
2017-Nov-16 21:00S 29°54' E 031°40'4 8.9
2017-Nov-16 20:30S 29°58' E 031°38'5 9.0
2017-Nov-16 20:00S 30°03' E 031°37'5 9.4
2017-Nov-16 19:30S 30°07' E 031°36'5 8.8
2017-Nov-16 19:00S 30°11' E 031°34'3 5.8
2017-Nov-16 18:30S 30°10' E 031°31'3 5.9
2017-Nov-16 18:00S 30°09' E 031°28'3 5.4
2017-Nov-16 17:30S 30°09' E 031°25'3 6.3
2017-Nov-16 17:00S 30°07' E 031°21'4 8.2
2017-Nov-16 16:30S 30°08' E 031°17'5 9.5
2017-Nov-16 16:00S 30°13' E 031°16'5 9.7
2017-Nov-16 15:31S 30°17' E 031°15'1 1.9
2017-Nov-16 15:00S 30°18' E 031°14'3 5.0
2017-Nov-16 14:30S 30°16' E 031°15'3 5.5
2017-Nov-16 14:01S 30°13' E 031°17'3 5.8
2017-Nov-16 13:30S 30°11' E 031°18'3 5.8
2017-Nov-16 13:00S 30°08' E 031°20'3 6.1
2017-Nov-16 12:31S 30°06' E 031°22'3 5.8
2017-Nov-16 12:00S 30°04' E 031°24'3 6.0
2017-Nov-16 11:30S 30°01' E 031°26'3 5.4
2017-Nov-16 11:00S 29°58' E 031°27'3 5.1
2017-Nov-16 10:31S 29°56' E 031°28'3 5.3
2017-Nov-16 10:00S 29°54' E 031°29'2 4.9
2017-Nov-16 09:30S 29°51' E 031°30'2 4.3
2017-Nov-16 09:00S 29°49' E 031°31'2 3.5
2017-Nov-16 08:30S 29°48' E 031°33'2 4.2
2017-Nov-16 08:00S 29°46' E 031°34'2 3.1
2017-Nov-16 07:30S 29°45' E 031°34'1 2.8
2017-Nov-16 07:00S 29°43' E 031°34'2 3.9
2017-Nov-16 06:30S 29°41' E 031°35'2 3.6
2017-Nov-16 06:00S 29°40' E 031°36'2 3.4
2017-Nov-16 05:30S 29°38' E 031°36'2 3.7
2017-Nov-16 05:01S 29°36' E 031°37'2 3.5
2017-Nov-16 04:30S 29°35' E 031°38'2 3.1
2017-Nov-16 04:00S 29°34' E 031°39'1 2.4
2017-Nov-16 03:30S 29°33' E 031°40'1 2.8
2017-Nov-16 03:00S 29°32' E 031°41'1 2.9
2017-Nov-16 02:30S 29°30' E 031°41'2 3.7
2017-Nov-16 02:01S 29°28' E 031°42'2 4.1
2017-Nov-16 01:30S 29°27' E 031°43'2 4.6
2017-Nov-16 01:00S 29°24' E 031°44'4 8.3
2017-Nov-16 00:31S 29°27' E 031°41'5 9.5
2017-Nov-16 00:00S 29°32' E 031°38'510.0
2017-Nov-15 23:31S 29°36' E 031°35'5 9.9
2017-Nov-15 23:00S 29°40' E 031°33'5 9.5
2017-Nov-15 22:31S 29°44' E 031°30'5 9.3
2017-Nov-15 22:00S 29°49' E 031°27'4 8.4
2017-Nov-15 21:31S 29°52' E 031°25'4 8.3
2017-Nov-15 21:00S 29°56' E 031°23'4 8.5
2017-Nov-15 20:30S 29°60' E 031°21'4 8.0
2017-Nov-15 20:00S 30°04' E 031°19'4 7.6
2017-Nov-15 19:30S 30°07' E 031°17'4 7.1
2017-Nov-15 19:00S 30°10' E 031°16'1 1.7
2017-Nov-15 18:30S 30°10' E 031°15'2 4.8
2017-Nov-15 18:01S 30°08' E 031°16'2 4.5
2017-Nov-15 17:30S 30°06' E 031°17'2 4.9
2017-Nov-15 17:01S 30°03' E 031°18'2 4.8
2017-Nov-15 16:31S 30°01' E 031°19'2 4.1
2017-Nov-15 16:01S 29°60' E 031°21'2 4.5
2017-Nov-15 15:30S 29°58' E 031°23'2 4.6
2017-Nov-15 15:00S 29°56' E 031°24'2 4.0
2017-Nov-15 14:30S 29°54' E 031°25'2 3.3
2017-Nov-15 14:01S 29°53' E 031°26'2 3.9
2017-Nov-15 13:30S 29°51' E 031°27'2 4.6
2017-Nov-15 13:00S 29°49' E 031°28'2 4.8
2017-Nov-15 12:31S 29°47' E 031°29'2 4.8
2017-Nov-15 12:00S 29°45' E 031°30'2 4.6
2017-Nov-15 11:30S 29°42' E 031°31'2 4.1
2017-Nov-15 11:01S 29°40' E 031°32'2 3.6
2017-Nov-15 10:30S 29°39' E 031°32'2 3.6
2017-Nov-15 10:00S 29°37' E 031°33'2 3.2
2017-Nov-15 09:31S 29°38' E 031°35'1 1.8
2017-Nov-15 09:00S 29°39' E 031°35'0 1.0
2017-Nov-15 08:30S 29°39' E 031°35'0 0.6
2017-Nov-15 08:00S 29°39' E 031°35'0 1.0
2017-Nov-15 07:30S 29°39' E 031°35'1 1.5
2017-Nov-15 07:00S 29°40' E 031°36'0 0.7
2017-Nov-15 06:30S 29°40' E 031°36'1 1.0
2017-Nov-15 06:00S 29°39' E 031°37'0 0.9
2017-Nov-15 05:30S 29°39' E 031°37'1 1.3
2017-Nov-15 05:00S 29°39' E 031°38'1 3.0
2017-Nov-15 04:30S 29°37' E 031°38'1 2.4
2017-Nov-15 04:01S 29°37' E 031°37'2 4.7
2017-Nov-15 03:30S 29°39' E 031°36'3 5.3
2017-Nov-15 03:00S 29°41' E 031°35'3 5.4
2017-Nov-15 02:23S 29°44' E 031°33'3 5.4
2017-Nov-15 01:55S 29°47' E 031°32'2 5.9
2017-Nov-15 01:31S 29°49' E 031°30'3 5.8
2017-Nov-15 01:00S 29°51' E 031°29'3 5.6
2017-Nov-15 00:30S 29°54' E 031°27'3 5.1
2017-Nov-15 00:00S 29°56' E 031°27'2 4.8
2017-Nov-14 23:30S 29°59' E 031°27'2 4.8
2017-Nov-14 23:00S 30°01' E 031°26'2 4.5
2017-Nov-14 22:30S 30°03' E 031°25'2 4.0
2017-Nov-14 22:00S 30°05' E 031°24'2 4.2
2017-Nov-14 21:30S 30°07' E 031°23'2 4.2
2017-Nov-14 21:00S 30°09' E 031°23'2 4.2
2017-Nov-14 20:30S 30°11' E 031°22'2 4.7
2017-Nov-14 20:01S 30°13' E 031°21'2 5.0
2017-Nov-14 19:30S 30°16' E 031°21'2 4.5
2017-Nov-14 19:00S 30°18' E 031°21'2 4.3
2017-Nov-14 18:30S 30°20' E 031°20'2 4.3
2017-Nov-14 18:00S 30°22' E 031°20'2 4.6
2017-Nov-14 17:31S 30°24' E 031°20'3 5.1
2017-Nov-14 17:01S 30°27' E 031°19'3 5.5
2017-Nov-14 16:30S 30°30' E 031°19'1 2.3
2017-Nov-14 16:00S 30°31' E 031°18'1 2.4
2017-Nov-14 15:30S 30°30' E 031°19'2 2.8
2017-Nov-14 14:49S 30°28' E 031°20'1 2.9
2017-Nov-14 14:24S 30°27' E 031°21'1 2.8
2017-Nov-14 13:59S 30°26' E 031°22'1 2.4
2017-Nov-14 13:30S 30°25' E 031°23'1 2.7
2017-Nov-14 13:01S 30°24' E 031°23'2 3.0
2017-Nov-14 12:25S 30°22' E 031°24'1 3.3
2017-Nov-14 12:00S 30°21' E 031°25'3 3.6
2017-Nov-14 11:13S 30°19' E 031°27'1 3.7
2017-Nov-14 10:56S 30°18' E 031°27'2 3.8
2017-Nov-14 10:30S 30°17' E 031°28'2 3.9
2017-Nov-14 10:00S 30°15' E 031°30'2 4.0
2017-Nov-14 09:30S 30°13' E 031°31'2 4.2
2017-Nov-14 09:00S 30°12' E 031°33'2 4.3
2017-Nov-14 08:30S 30°10' E 031°34'2 4.4
2017-Nov-14 08:00S 30°08' E 031°36'2 4.4
2017-Nov-14 07:31S 30°06' E 031°37'2 4.5
2017-Nov-14 07:00S 30°04' E 031°37'2 4.7
2017-Nov-14 06:31S 30°02' E 031°38'2 4.6
2017-Nov-14 06:00S 29°60' E 031°39'2 4.5
2017-Nov-14 05:30S 29°58' E 031°40'2 3.1
2017-Nov-14 05:00S 29°56' E 031°38'2 4.0
2017-Nov-14 04:30S 29°56' E 031°36'1 3.0
2017-Nov-14 04:00S 29°56' E 031°35'1 2.0
2017-Nov-14 03:30S 29°57' E 031°34'1 2.1
2017-Nov-14 03:00S 29°58' E 031°33'1 2.4
2017-Nov-14 02:30S 29°59' E 031°32'1 2.7
2017-Nov-14 02:00S 29°60' E 031°32'2 3.2
2017-Nov-14 01:30S 30°01' E 031°31'1 2.8
2017-Nov-14 01:00S 30°03' E 031°30'1 2.6
2017-Nov-14 00:31S 30°04' E 031°30'2 3.5
2017-Nov-14 00:00S 30°05' E 031°29'2 3.1
2017-Nov-13 23:30S 30°07' E 031°28'2 3.9
2017-Nov-13 23:00S 30°08' E 031°27'2 4.4
2017-Nov-13 22:30S 30°10' E 031°26'1 3.0
2017-Nov-13 22:00S 30°12' E 031°25'6 0.6
2017-Nov-13 12:00S 30°18' E 031°24'37 3.7 050 / 341005.3 5.4 26.126.126.1
2017-Nov-13 02:00S 29°48' E 031°50'3 5.1
2017-Nov-13 01:30S 29°48' E 031°53'2 4.3
2017-Nov-13 01:00S 29°48' E 031°55'2 4.2
2017-Nov-13 00:30S 29°48' E 031°58'3 5.8
2017-Nov-13 00:01S 29°48' E 032°01'2 3.4
2017-Nov-12 23:30S 29°48' E 032°03'3 5.0
2017-Nov-12 23:00S 29°48' E 032°06'10 2.2
2017-Nov-12 18:33S 29°46' E 031°55'1 3.5
2017-Nov-12 18:15S 29°46' E 031°53'1 3.4
2017-Nov-12 18:00S 29°46' E 031°53'2 3.5
2017-Nov-12 17:30S 29°45' E 031°51'2 3.5
2017-Nov-12 17:00S 29°44' E 031°49'2 3.6
2017-Nov-12 16:31S 29°44' E 031°47'3 5.6
2017-Nov-12 16:00S 29°44' E 031°44'2 3.3
2017-Nov-12 15:30S 29°44' E 031°42'2 3.1
2017-Nov-12 15:00S 29°44' E 031°40'2 3.2
2017-Nov-12 14:30S 29°44' E 031°38'2 3.5
2017-Nov-12 14:01S 29°45' E 031°36'2 3.7
2017-Nov-12 13:30S 29°46' E 031°34'2 4.0
2017-Nov-12 13:00S 29°47' E 031°33'2 4.3
2017-Nov-12 12:31S 29°48' E 031°30'2 4.3
2017-Nov-12 12:00S 29°50' E 031°29'2 4.5
2017-Nov-12 11:31S 29°52' E 031°28'3 5.2
2017-Nov-12 11:00S 29°54' E 031°27'3 5.3
2017-Nov-12 10:30S 29°57' E 031°26'3 5.6
2017-Nov-12 10:00S 29°59' E 031°25'3 5.6
2017-Nov-12 09:31S 30°02' E 031°23'3 5.8
2017-Nov-12 09:00S 30°04' E 031°22'3 6.4
2017-Nov-12 08:30S 30°07' E 031°20'3 6.1
2017-Nov-12 08:00S 30°10' E 031°18'3 5.8
2017-Nov-12 07:30S 30°13' E 031°17'3 5.6
2017-Nov-12 07:00S 30°15' E 031°15'3 5.5
2017-Nov-12 06:30S 30°18' E 031°16'3 6.5
2017-Nov-12 06:00S 30°20' E 031°18'3 6.4
2017-Nov-12 05:30S 30°23' E 031°21'4 7.3
2017-Nov-12 05:00S 30°25' E 031°24'4 7.3
2017-Nov-12 04:30S 30°27' E 031°28'4 7.2
2017-Nov-12 04:01S 30°29' E 031°31'4 7.4
2017-Nov-12 03:31S 30°32' E 031°34'15 6.7
2017-Nov-12 01:20S 30°19' E 031°41'3 8.6
2017-Nov-12 00:59S 30°16' E 031°42'4 8.7
2017-Nov-12 00:30S 30°12' E 031°44'4 8.7
2017-Nov-12 00:00S 30°08' E 031°45'4 8.7
2017-Nov-11 23:30S 30°04' E 031°47'4 8.9
2017-Nov-11 23:00S 29°60' E 031°49'4 8.8
2017-Nov-11 22:30S 29°56' E 031°51'5 9.5
2017-Nov-11 22:00S 29°51' E 031°52'3 6.1
2017-Nov-11 21:30S 29°53' E 031°49'3 5.8
2017-Nov-11 21:00S 29°55' E 031°47'3 6.4
2017-Nov-11 20:31S 29°58' E 031°45'3 6.0
2017-Nov-11 20:00S 30°00' E 031°46'4 7.2
2017-Nov-11 19:30S 30°04' E 031°46'3 6.0
2017-Nov-11 19:00S 30°07' E 031°47'3 6.3
2017-Nov-11 18:30S 30°10' E 031°47'2 4.5
2017-Nov-11 18:01S 30°11' E 031°45'4 7.3
2017-Nov-11 17:30S 30°12' E 031°41'4 7.2
2017-Nov-11 17:00S 30°12' E 031°36'4 7.1
2017-Nov-11 16:30S 30°12' E 031°32'3 6.9
2017-Nov-11 16:01S 30°13' E 031°28'2 4.8
2017-Nov-11 15:30S 30°14' E 031°26'4 7.2
2017-Nov-11 15:00S 30°18' E 031°27'3 5.9
2017-Nov-11 14:31S 30°20' E 031°25'2 4.4
2017-Nov-11 14:00S 30°22' E 031°24'1 1.8
2017-Nov-11 13:31S 30°23' E 031°25'3 6.8
2017-Nov-11 13:00S 30°19' E 031°25'4 7.2
2017-Nov-11 12:30S 30°16' E 031°26'4 7.5
2017-Nov-11 12:00S 30°12' E 031°26'4 7.4
2017-Nov-11 11:30S 30°08' E 031°27'4 7.3
2017-Nov-11 11:00S 30°05' E 031°28'4 7.6
2017-Nov-11 10:31S 30°01' E 031°28'3 4.9
2017-Nov-11 10:00S 29°60' E 031°31'2 4.3
2017-Nov-11 09:30S 29°60' E 031°28'3 5.5
2017-Nov-11 09:00S 29°60' E 031°25'2 4.9
2017-Nov-11 08:30S 30°02' E 031°25'4 7.6
2017-Nov-11 08:00S 30°06' E 031°27'3 6.8
2017-Nov-11 07:30S 30°08' E 031°29'2 3.2
2017-Nov-11 07:01S 30°10' E 031°30'2 4.4
2017-Nov-11 06:30S 30°08' E 031°28'3 6.1
2017-Nov-11 06:01S 30°07' E 031°25'3 6.2
2017-Nov-11 05:30S 30°06' E 031°22'3 6.6
2017-Nov-11 05:00S 30°05' E 031°18'3 6.0
2017-Nov-11 04:30S 30°04' E 031°15'2 4.7
2017-Nov-11 04:00S 30°05' E 031°12'3 5.1
2017-Nov-11 03:30S 30°07' E 031°10'2 4.7
2017-Nov-11 03:01S 30°09' E 031°11'21 2.8
2017-Nov-10 19:31S 30°07' E 031°35'0 6.5
2017-Nov-10 19:29S 30°07' E 031°35'3 6.3
2017-Nov-10 19:00S 30°04' E 031°35'3 6.5
2017-Nov-10 18:30S 30°01' E 031°36'4 7.4
2017-Nov-10 18:00S 29°57' E 031°36'4 7.5
2017-Nov-10 17:30S 29°54' E 031°37'3 6.9
2017-Nov-10 17:00S 29°50' E 031°37'3 6.5
2017-Nov-10 16:30S 29°47' E 031°37'3 5.7
2017-Nov-10 16:00S 29°44' E 031°36'3 6.1
2017-Nov-10 15:30S 29°41' E 031°36'3 6.4
2017-Nov-10 15:00S 29°38' E 031°35'4 7.1
2017-Nov-10 14:31S 29°34' E 031°34'3 6.5
2017-Nov-10 14:00S 29°35' E 031°38'3 6.1
2017-Nov-10 13:30S 29°37' E 031°40'3 5.3
2017-Nov-10 13:01S 29°38' E 031°43'3 5.0
2017-Nov-10 12:26S 29°40' E 031°46'2 5.7
2017-Nov-10 12:00S 29°41' E 031°48'1 2.9
2017-Nov-10 11:30S 29°42' E 031°48'3 5.5
2017-Nov-10 11:00S 29°43' E 031°45'3 6.0
2017-Nov-10 10:30S 29°44' E 031°42'3 6.7
2017-Nov-10 10:00S 29°45' E 031°38'4 7.1
2017-Nov-10 09:30S 29°47' E 031°34'4 7.5
2017-Nov-10 09:00S 29°49' E 031°31'3 7.0
2017-Nov-10 08:30S 29°51' E 031°28'3 5.3
2017-Nov-10 08:01S 29°52' E 031°25'3 5.4
2017-Nov-10 07:30S 29°54' E 031°23'2 3.2
2017-Nov-10 07:00S 29°55' E 031°22'3 3.8
2017-Nov-10 06:20S 29°57' E 031°19'2 5.5
2017-Nov-10 06:00S 29°58' E 031°18'3 5.5
2017-Nov-10 05:30S 29°59' E 031°15'2 4.3
2017-Nov-10 05:00S 29°60' E 031°12'2 4.8
2017-Nov-10 04:31S 29°59' E 031°10'510.0
2017-Nov-10 04:00S 30°04' E 031°09'612.6
2017-Nov-10 03:31S 30°10' E 031°10'1 2.2
2017-Nov-10 02:58S 30°10' E 031°11'1 2.3
2017-Nov-10 02:28S 30°09' E 031°12'1 2.0
2017-Nov-10 01:58S 30°09' E 031°13'1 1.7
2017-Nov-10 01:28S 30°08' E 031°14'1 1.8
2017-Nov-10 00:58S 30°07' E 031°14'1 1.6
2017-Nov-10 00:31S 30°07' E 031°15'1 1.6
2017-Nov-09 23:58S 30°06' E 031°15'1 1.5
2017-Nov-09 23:28S 30°06' E 031°16'1 1.3
2017-Nov-09 23:00S 30°05' E 031°17'0 0.9
2017-Nov-09 22:31S 30°05' E 031°17'1 1.2
2017-Nov-09 21:55S 30°05' E 031°18'1 1.3
2017-Nov-09 21:28S 30°04' E 031°18'1 1.0
2017-Nov-09 20:58S 30°04' E 031°19'0 1.0
2017-Nov-09 20:30S 30°04' E 031°20'1 1.5
2017-Nov-09 19:58S 30°04' E 031°20'1 1.8
2017-Nov-09 19:31S 30°04' E 031°21'1 2.0
2017-Nov-09 19:01S 30°03' E 031°22'1 2.1
2017-Nov-09 18:28S 30°03' E 031°24'1 1.8
2017-Nov-09 17:58S 30°02' E 031°24'1 1.8
2017-Nov-09 17:28S 30°02' E 031°25'1 1.5
2017-Nov-09 17:01S 30°01' E 031°26'1 1.3
2017-Nov-09 16:30S 30°01' E 031°26'1 1.2
2017-Nov-09 16:01S 30°00' E 031°26'1 2.2
2017-Nov-09 15:30S 29°59' E 031°27'1 1.3
2017-Nov-09 15:00S 29°59' E 031°28'1 1.8
2017-Nov-09 14:30S 29°58' E 031°28'0 0.9
2017-Nov-09 14:00S 29°58' E 031°29'1 1.5
2017-Nov-09 13:30S 29°57' E 031°29'0 0.6
2017-Nov-09 13:00S 29°57' E 031°29'1 1.2
2017-Nov-09 12:30S 29°57' E 031°30'1 1.1
2017-Nov-09 12:00S 29°56' E 031°30'1 1.3
2017-Nov-09 11:30S 29°56' E 031°30'1 1.4
2017-Nov-09 11:00S 29°55' E 031°31'0 0.4
2017-Nov-09 10:30S 29°56' E 031°31'1 2.0
2017-Nov-09 10:00S 29°55' E 031°32'0 0.1
2017-Nov-09 09:30S 29°55' E 031°32'1 2.0
2017-Nov-09 09:00S 29°54' E 031°32'0 0.4
2017-Nov-09 08:30S 29°54' E 031°32'1 1.7
2017-Nov-09 08:00S 29°53' E 031°32'0 0.3
2017-Nov-09 07:30S 29°53' E 031°32'  
Track history (hours):
 
Tides and Currents Weather Stations Pressure Air Temp Water Temp Dewpoint Dewpoint Depression Visibility Wind Speed Wind Dir Waves Ship Positions

MSC Benedetta

Last reported at 2017-Nov-19 07:07 UTC. Time now 2017-Dec-16 11:16 UTC.
Position S 29°53' E 031°01'.
Warning: this ship's position is 27 days out of date.

Length 366 m; draft 12.8 m.

Type: Ship (hazmat cat B). MMSI: 253269000.

Date/timePositionNaut miles runAvg speedWind from/ knotsBaromVisibWave heightAir tempDewpointWater temp
2017-Nov-19 07:07S 29°53' E 031°01'0 0.0
2017-Nov-19 06:56S 29°53' E 031°01'0 0.0
2017-Nov-19 06:29S 29°53' E 031°01'0 0.0
2017-Nov-19 05:59S 29°53' E 031°01'0 0.0
2017-Nov-19 05:25S 29°53' E 031°01'0 0.0
2017-Nov-19 04:56S 29°53' E 031°01'0 0.0
2017-Nov-19 04:28S 29°53' E 031°01'0 0.0
2017-Nov-19 03:58S 29°53' E 031°01'0 0.0
2017-Nov-19 03:28S 29°53' E 031°01'0 0.0
2017-Nov-19 02:58S 29°53' E 031°01'0 0.0
2017-Nov-19 02:29S 29°53' E 031°01'0 0.0
2017-Nov-19 01:58S 29°53' E 031°01'0 0.0
2017-Nov-19 01:28S 29°53' E 031°01'0 0.0
2017-Nov-19 00:58S 29°53' E 031°01'0 0.0
2017-Nov-19 00:28S 29°53' E 031°01'0 0.0
2017-Nov-18 23:58S 29°53' E 031°01'0 0.0
2017-Nov-18 23:29S 29°53' E 031°01'0 0.0
2017-Nov-18 22:58S 29°53' E 031°01'0 0.0
2017-Nov-18 22:28S 29°53' E 031°01'0 0.0
2017-Nov-18 21:58S 29°53' E 031°01'0 0.0
2017-Nov-18 21:28S 29°53' E 031°01'0 0.0
2017-Nov-18 20:55S 29°53' E 031°01'0 0.0
2017-Nov-18 20:28S 29°53' E 031°01'0 0.0
2017-Nov-18 19:58S 29°53' E 031°01'0 0.0
2017-Nov-18 19:28S 29°53' E 031°01'0 0.0
2017-Nov-18 18:58S 29°53' E 031°01'0 0.0
2017-Nov-18 18:28S 29°53' E 031°01'0 0.0
2017-Nov-18 17:49S 29°53' E 031°01'0 0.0
2017-Nov-18 17:28S 29°53' E 031°01'0 0.0
2017-Nov-18 16:58S 29°53' E 031°01'0 0.0
2017-Nov-18 16:28S 29°53' E 031°01'19 0.7
2017-Nov-17 11:59S 30°01' E 031°21'3 6.5
2017-Nov-17 11:30S 29°58' E 031°22'3 6.2
2017-Nov-17 11:00S 29°55' E 031°22'3 5.9
2017-Nov-17 10:30S 29°52' E 031°23'2 4.8
2017-Nov-17 10:00S 29°50' E 031°24'4 8.3
2017-Nov-17 09:30S 29°53' E 031°27'5 9.3
2017-Nov-17 09:00S 29°56' E 031°31'5 9.0
2017-Nov-17 08:30S 30°00' E 031°32'611.2
2017-Nov-17 08:00S 30°06' E 031°31'4 8.7
2017-Nov-17 07:30S 30°10' E 031°31'4 8.9
2017-Nov-17 07:00S 30°15' E 031°30'1 2.4
2017-Nov-17 06:29S 30°13' E 031°30'3 7.2
2017-Nov-17 06:00S 30°10' E 031°31'4 7.1
2017-Nov-17 05:30S 30°07' E 031°32'3 6.8
2017-Nov-17 05:00S 30°04' E 031°33'4 7.5
2017-Nov-17 04:30S 29°60' E 031°34'4 7.1
2017-Nov-17 04:00S 29°57' E 031°36'3 6.6
2017-Nov-17 03:30S 29°53' E 031°37'3 6.6
2017-Nov-17 03:00S 29°50' E 031°38'3 6.3
2017-Nov-17 02:30S 29°47' E 031°39'3 5.7
2017-Nov-17 02:00S 29°45' E 031°40'3 5.6
2017-Nov-17 01:30S 29°42' E 031°40'2 4.8
2017-Nov-17 01:00S 29°39' E 031°41'3 6.1
2017-Nov-17 00:30S 29°37' E 031°42'3 5.8
2017-Nov-17 00:00S 29°34' E 031°44'2 5.0
2017-Nov-16 23:31S 29°32' E 031°45'5 9.7
2017-Nov-16 23:00S 29°36' E 031°43'5 9.1
2017-Nov-16 22:30S 29°41' E 031°43'5 9.0
2017-Nov-16 22:00S 29°45' E 031°42'4 8.9
2017-Nov-16 21:30S 29°50' E 031°41'4 8.6
2017-Nov-16 21:00S 29°54' E 031°40'4 8.9
2017-Nov-16 20:30S 29°58' E 031°38'5 9.0
2017-Nov-16 20:00S 30°03' E 031°37'5 9.4
2017-Nov-16 19:30S 30°07' E 031°36'5 8.8
2017-Nov-16 19:00S 30°11' E 031°34'3 5.8
2017-Nov-16 18:30S 30°10' E 031°31'3 5.9
2017-Nov-16 18:00S 30°09' E 031°28'3 5.4
2017-Nov-16 17:30S 30°09' E 031°25'3 6.3
2017-Nov-16 17:00S 30°07' E 031°21'4 8.2
2017-Nov-16 16:30S 30°08' E 031°17'5 9.5
2017-Nov-16 16:00S 30°13' E 031°16'5 9.7
2017-Nov-16 15:31S 30°17' E 031°15'1 1.9
2017-Nov-16 15:00S 30°18' E 031°14'3 5.0
2017-Nov-16 14:30S 30°16' E 031°15'3 5.5
2017-Nov-16 14:01S 30°13' E 031°17'3 5.8
2017-Nov-16 13:30S 30°11' E 031°18'3 5.8
2017-Nov-16 13:00S 30°08' E 031°20'3 6.1
2017-Nov-16 12:31S 30°06' E 031°22'3 5.8
2017-Nov-16 12:00S 30°04' E 031°24'3 6.0
2017-Nov-16 11:30S 30°01' E 031°26'3 5.4
2017-Nov-16 11:00S 29°58' E 031°27'3 5.1
2017-Nov-16 10:31S 29°56' E 031°28'3 5.3
2017-Nov-16 10:00S 29°54' E 031°29'2 4.9
2017-Nov-16 09:30S 29°51' E 031°30'2 4.3
2017-Nov-16 09:00S 29°49' E 031°31'2 3.5
2017-Nov-16 08:30S 29°48' E 031°33'2 4.2
2017-Nov-16 08:00S 29°46' E 031°34'2 3.1
2017-Nov-16 07:30S 29°45' E 031°34'1 2.8
2017-Nov-16 07:00S 29°43' E 031°34'2 3.9
2017-Nov-16 06:30S 29°41' E 031°35'2 3.6
2017-Nov-16 06:00S 29°40' E 031°36'2 3.4
2017-Nov-16 05:30S 29°38' E 031°36'2 3.7
2017-Nov-16 05:01S 29°36' E 031°37'2 3.5
2017-Nov-16 04:30S 29°35' E 031°38'2 3.1
2017-Nov-16 04:00S 29°34' E 031°39'1 2.4
2017-Nov-16 03:30S 29°33' E 031°40'1 2.8
2017-Nov-16 03:00S 29°32' E 031°41'1 2.9
2017-Nov-16 02:30S 29°30' E 031°41'2 3.7
2017-Nov-16 02:01S 29°28' E 031°42'2 4.1
2017-Nov-16 01:30S 29°27' E 031°43'2 4.6
2017-Nov-16 01:00S 29°24' E 031°44'4 8.3
2017-Nov-16 00:31S 29°27' E 031°41'5 9.5
2017-Nov-16 00:00S 29°32' E 031°38'510.0
2017-Nov-15 23:31S 29°36' E 031°35'5 9.9
2017-Nov-15 23:00S 29°40' E 031°33'5 9.5
2017-Nov-15 22:31S 29°44' E 031°30'5 9.3
2017-Nov-15 22:00S 29°49' E 031°27'4 8.4
2017-Nov-15 21:31S 29°52' E 031°25'4 8.3
2017-Nov-15 21:00S 29°56' E 031°23'4 8.5
2017-Nov-15 20:30S 29°60' E 031°21'4 8.0
2017-Nov-15 20:00S 30°04' E 031°19'4 7.6
2017-Nov-15 19:30S 30°07' E 031°17'4 7.1
2017-Nov-15 19:00S 30°10' E 031°16'1 1.7
2017-Nov-15 18:30S 30°10' E 031°15'2 4.8
2017-Nov-15 18:01S 30°08' E 031°16'2 4.5
2017-Nov-15 17:30S 30°06' E 031°17'2 4.9
2017-Nov-15 17:01S 30°03' E 031°18'2 4.8
2017-Nov-15 16:31S 30°01' E 031°19'2 4.1
2017-Nov-15 16:01S 29°60' E 031°21'2 4.5
2017-Nov-15 15:30S 29°58' E 031°23'2 4.6
2017-Nov-15 15:00S 29°56' E 031°24'2 4.0
2017-Nov-15 14:30S 29°54' E 031°25'2 3.3
2017-Nov-15 14:01S 29°53' E 031°26'2 3.9
2017-Nov-15 13:30S 29°51' E 031°27'2 4.6
2017-Nov-15 13:00S 29°49' E 031°28'2 4.8
2017-Nov-15 12:31S 29°47' E 031°29'2 4.8
2017-Nov-15 12:00S 29°45' E 031°30'2 4.6
2017-Nov-15 11:30S 29°42' E 031°31'2 4.1
2017-Nov-15 11:01S 29°40' E 031°32'2 3.6
2017-Nov-15 10:30S 29°39' E 031°32'2 3.6
2017-Nov-15 10:00S 29°37' E 031°33'2 3.2
2017-Nov-15 09:31S 29°38' E 031°35'1 1.8
2017-Nov-15 09:00S 29°39' E 031°35'0 1.0
2017-Nov-15 08:30S 29°39' E 031°35'0 0.6
2017-Nov-15 08:00S 29°39' E 031°35'0 1.0
2017-Nov-15 07:30S 29°39' E 031°35'1 1.5
2017-Nov-15 07:00S 29°40' E 031°36'0 0.7
2017-Nov-15 06:30S 29°40' E 031°36'1 1.0
2017-Nov-15 06:00S 29°39' E 031°37'0 0.9
2017-Nov-15 05:30S 29°39' E 031°37'1 1.3
2017-Nov-15 05:00S 29°39' E 031°38'1 3.0
2017-Nov-15 04:30S 29°37' E 031°38'1 2.4
2017-Nov-15 04:01S 29°37' E 031°37'2 4.7
2017-Nov-15 03:30S 29°39' E 031°36'3 5.3
2017-Nov-15 03:00S 29°41' E 031°35'3 5.4
2017-Nov-15 02:23S 29°44' E 031°33'3 5.4
2017-Nov-15 01:55S 29°47' E 031°32'2 5.9
2017-Nov-15 01:31S 29°49' E 031°30'3 5.8
2017-Nov-15 01:00S 29°51' E 031°29'3 5.6
2017-Nov-15 00:30S 29°54' E 031°27'3 5.1
2017-Nov-15 00:00S 29°56' E 031°27'2 4.8
2017-Nov-14 23:30S 29°59' E 031°27'2 4.8
2017-Nov-14 23:00S 30°01' E 031°26'2 4.5
2017-Nov-14 22:30S 30°03' E 031°25'2 4.0
2017-Nov-14 22:00S 30°05' E 031°24'2 4.2
2017-Nov-14 21:30S 30°07' E 031°23'2 4.2
2017-Nov-14 21:00S 30°09' E 031°23'2 4.2
2017-Nov-14 20:30S 30°11' E 031°22'2 4.7
2017-Nov-14 20:01S 30°13' E 031°21'2 5.0
2017-Nov-14 19:30S 30°16' E 031°21'2 4.5
2017-Nov-14 19:00S 30°18' E 031°21'2 4.3
2017-Nov-14 18:30S 30°20' E 031°20'2 4.3
2017-Nov-14 18:00S 30°22' E 031°20'2 4.6
2017-Nov-14 17:31S 30°24' E 031°20'3 5.1
2017-Nov-14 17:01S 30°27' E 031°19'3 5.5
2017-Nov-14 16:30S 30°30' E 031°19'1 2.3
2017-Nov-14 16:00S 30°31' E 031°18'1 2.4
2017-Nov-14 15:30S 30°30' E 031°19'2 2.8
2017-Nov-14 14:49S 30°28' E 031°20'1 2.9
2017-Nov-14 14:24S 30°27' E 031°21'1 2.8
2017-Nov-14 13:59S 30°26' E 031°22'1 2.4
2017-Nov-14 13:30S 30°25' E 031°23'1 2.7
2017-Nov-14 13:01S 30°24' E 031°23'2 3.0
2017-Nov-14 12:25S 30°22' E 031°24'1 3.3
2017-Nov-14 12:00S 30°21' E 031°25'3 3.6
2017-Nov-14 11:13S 30°19' E 031°27'1 3.7
2017-Nov-14 10:56S 30°18' E 031°27'2 3.8
2017-Nov-14 10:30S 30°17' E 031°28'2 3.9
2017-Nov-14 10:00S 30°15' E 031°30'2 4.0
2017-Nov-14 09:30S 30°13' E 031°31'2 4.2
2017-Nov-14 09:00S 30°12' E 031°33'2 4.3
2017-Nov-14 08:30S 30°10' E 031°34'2 4.4
2017-Nov-14 08:00S 30°08' E 031°36'2 4.4
2017-Nov-14 07:31S 30°06' E 031°37'2 4.5
2017-Nov-14 07:00S 30°04' E 031°37'2 4.7
2017-Nov-14 06:31S 30°02' E 031°38'2 4.6
2017-Nov-14 06:00S 29°60' E 031°39'2 4.5
2017-Nov-14 05:30S 29°58' E 031°40'2 3.1
2017-Nov-14 05:00S 29°56' E 031°38'2 4.0
2017-Nov-14 04:30S 29°56' E 031°36'1 3.0
2017-Nov-14 04:00S 29°56' E 031°35'1 2.0
2017-Nov-14 03:30S 29°57' E 031°34'1 2.1
2017-Nov-14 03:00S 29°58' E 031°33'1 2.4
2017-Nov-14 02:30S 29°59' E 031°32'1 2.7
2017-Nov-14 02:00S 29°60' E 031°32'2 3.2
2017-Nov-14 01:30S 30°01' E 031°31'1 2.8
2017-Nov-14 01:00S 30°03' E 031°30'1 2.6
2017-Nov-14 00:31S 30°04' E 031°30'2 3.5
2017-Nov-14 00:00S 30°05' E 031°29'2 3.1
2017-Nov-13 23:30S 30°07' E 031°28'2 3.9
2017-Nov-13 23:00S 30°08' E 031°27'2 4.4
2017-Nov-13 22:30S 30°10' E 031°26'1 3.0
2017-Nov-13 22:00S 30°12' E 031°25'6 0.6
2017-Nov-13 12:00S 30°18' E 031°24'37 3.7 050 / 341005.3 5.4 26.126.126.1
2017-Nov-13 02:00S 29°48' E 031°50'3 5.1
2017-Nov-13 01:30S 29°48' E 031°53'2 4.3
2017-Nov-13 01:00S 29°48' E 031°55'2 4.2
2017-Nov-13 00:30S 29°48' E 031°58'3 5.8
2017-Nov-13 00:01S 29°48' E 032°01'2 3.4
2017-Nov-12 23:30S 29°48' E 032°03'3 5.0
2017-Nov-12 23:00S 29°48' E 032°06'10 2.2
2017-Nov-12 18:33S 29°46' E 031°55'1 3.5
2017-Nov-12 18:15S 29°46' E 031°53'1 3.4
2017-Nov-12 18:00S 29°46' E 031°53'2 3.5
2017-Nov-12 17:30S 29°45' E 031°51'2 3.5
2017-Nov-12 17:00S 29°44' E 031°49'2 3.6
2017-Nov-12 16:31S 29°44' E 031°47'3 5.6
2017-Nov-12 16:00S 29°44' E 031°44'2 3.3
2017-Nov-12 15:30S 29°44' E 031°42'2 3.1
2017-Nov-12 15:00S 29°44' E 031°40'2 3.2
2017-Nov-12 14:30S 29°44' E 031°38'2 3.5
2017-Nov-12 14:01S 29°45' E 031°36'2 3.7
2017-Nov-12 13:30S 29°46' E 031°34'2 4.0
2017-Nov-12 13:00S 29°47' E 031°33'2 4.3
2017-Nov-12 12:31S 29°48' E 031°30'2 4.3
2017-Nov-12 12:00S 29°50' E 031°29'2 4.5
2017-Nov-12 11:31S 29°52' E 031°28'3 5.2
2017-Nov-12 11:00S 29°54' E 031°27'3 5.3
2017-Nov-12 10:30S 29°57' E 031°26'3 5.6
2017-Nov-12 10:00S 29°59' E 031°25'3 5.6
2017-Nov-12 09:31S 30°02' E 031°23'3 5.8
2017-Nov-12 09:00S 30°04' E 031°22'3 6.4
2017-Nov-12 08:30S 30°07' E 031°20'3 6.1
2017-Nov-12 08:00S 30°10' E 031°18'3 5.8
2017-Nov-12 07:30S 30°13' E 031°17'3 5.6
2017-Nov-12 07:00S 30°15' E 031°15'3 5.5
2017-Nov-12 06:30S 30°18' E 031°16'3 6.5
2017-Nov-12 06:00S 30°20' E 031°18'3 6.4
2017-Nov-12 05:30S 30°23' E 031°21'4 7.3
2017-Nov-12 05:00S 30°25' E 031°24'4 7.3
2017-Nov-12 04:30S 30°27' E 031°28'4 7.2
2017-Nov-12 04:01S 30°29' E 031°31'4 7.4
2017-Nov-12 03:31S 30°32' E 031°34'15 6.7
2017-Nov-12 01:20S 30°19' E 031°41'3 8.6
2017-Nov-12 00:59S 30°16' E 031°42'4 8.7
2017-Nov-12 00:30S 30°12' E 031°44'4 8.7
2017-Nov-12 00:00S 30°08' E 031°45'4 8.7
2017-Nov-11 23:30S 30°04' E 031°47'4 8.9
2017-Nov-11 23:00S 29°60' E 031°49'4 8.8
2017-Nov-11 22:30S 29°56' E 031°51'5 9.5
2017-Nov-11 22:00S 29°51' E 031°52'3 6.1
2017-Nov-11 21:30S 29°53' E 031°49'3 5.8
2017-Nov-11 21:00S 29°55' E 031°47'3 6.4
2017-Nov-11 20:31S 29°58' E 031°45'3 6.0
2017-Nov-11 20:00S 30°00' E 031°46'4 7.2
2017-Nov-11 19:30S 30°04' E 031°46'3 6.0
2017-Nov-11 19:00S 30°07' E 031°47'3 6.3
2017-Nov-11 18:30S 30°10' E 031°47'2 4.5
2017-Nov-11 18:01S 30°11' E 031°45'4 7.3
2017-Nov-11 17:30S 30°12' E 031°41'4 7.2
2017-Nov-11 17:00S 30°12' E 031°36'4 7.1
2017-Nov-11 16:30S 30°12' E 031°32'3 6.9
2017-Nov-11 16:01S 30°13' E 031°28'2 4.8
2017-Nov-11 15:30S 30°14' E 031°26'4 7.2
2017-Nov-11 15:00S 30°18' E 031°27'3 5.9
2017-Nov-11 14:31S 30°20' E 031°25'2 4.4
2017-Nov-11 14:00S 30°22' E 031°24'1 1.8
2017-Nov-11 13:31S 30°23' E 031°25'3 6.8
2017-Nov-11 13:00S 30°19' E 031°25'4 7.2
2017-Nov-11 12:30S 30°16' E 031°26'4 7.5
2017-Nov-11 12:00S 30°12' E 031°26'4 7.4
2017-Nov-11 11:30S 30°08' E 031°27'4 7.3
2017-Nov-11 11:00S 30°05' E 031°28'4 7.6
2017-Nov-11 10:31S 30°01' E 031°28'3 4.9
2017-Nov-11 10:00S 29°60' E 031°31'2 4.3
2017-Nov-11 09:30S 29°60' E 031°28'3 5.5
2017-Nov-11 09:00S 29°60' E 031°25'2 4.9
2017-Nov-11 08:30S 30°02' E 031°25'4 7.6
2017-Nov-11 08:00S 30°06' E 031°27'3 6.8
2017-Nov-11 07:30S 30°08' E 031°29'2 3.2
2017-Nov-11 07:01S 30°10' E 031°30'2 4.4
2017-Nov-11 06:30S 30°08' E 031°28'3 6.1
2017-Nov-11 06:01S 30°07' E 031°25'3 6.2
2017-Nov-11 05:30S 30°06' E 031°22'3 6.6
2017-Nov-11 05:00S 30°05' E 031°18'3 6.0
2017-Nov-11 04:30S 30°04' E 031°15'2 4.7
2017-Nov-11 04:00S 30°05' E 031°12'3 5.1
2017-Nov-11 03:30S 30°07' E 031°10'2 4.7
2017-Nov-11 03:01S 30°09' E 031°11'21 2.8
2017-Nov-10 19:31S 30°07' E 031°35'0 6.5
2017-Nov-10 19:29S 30°07' E 031°35'3 6.3
2017-Nov-10 19:00S 30°04' E 031°35'3 6.5
2017-Nov-10 18:30S 30°01' E 031°36'4 7.4
2017-Nov-10 18:00S 29°57' E 031°36'4 7.5
2017-Nov-10 17:30S 29°54' E 031°37'3 6.9
2017-Nov-10 17:00S 29°50' E 031°37'3 6.5
2017-Nov-10 16:30S 29°47' E 031°37'3 5.7
2017-Nov-10 16:00S 29°44' E 031°36'3 6.1
2017-Nov-10 15:30S 29°41' E 031°36'3 6.4
2017-Nov-10 15:00S 29°38' E 031°35'4 7.1
2017-Nov-10 14:31S 29°34' E 031°34'3 6.5
2017-Nov-10 14:00S 29°35' E 031°38'3 6.1
2017-Nov-10 13:30S 29°37' E 031°40'3 5.3
2017-Nov-10 13:01S 29°38' E 031°43'3 5.0
2017-Nov-10 12:26S 29°40' E 031°46'2 5.7
2017-Nov-10 12:00S 29°41' E 031°48'1 2.9
2017-Nov-10 11:30S 29°42' E 031°48'3 5.5
2017-Nov-10 11:00S 29°43' E 031°45'3 6.0
2017-Nov-10 10:30S 29°44' E 031°42'3 6.7
2017-Nov-10 10:00S 29°45' E 031°38'4 7.1
2017-Nov-10 09:30S 29°47' E 031°34'4 7.5
2017-Nov-10 09:00S 29°49' E 031°31'3 7.0
2017-Nov-10 08:30S 29°51' E 031°28'3 5.3
2017-Nov-10 08:01S 29°52' E 031°25'3 5.4
2017-Nov-10 07:30S 29°54' E 031°23'2 3.2
2017-Nov-10 07:00S 29°55' E 031°22'3 3.8
2017-Nov-10 06:20S 29°57' E 031°19'2 5.5
2017-Nov-10 06:00S 29°58' E 031°18'3 5.5
2017-Nov-10 05:30S 29°59' E 031°15'2 4.3
2017-Nov-10 05:00S 29°60' E 031°12'2 4.8
2017-Nov-10 04:31S 29°59' E 031°10'510.0
2017-Nov-10 04:00S 30°04' E 031°09'612.6
2017-Nov-10 03:31S 30°10' E 031°10'1 2.2
2017-Nov-10 02:58S 30°10' E 031°11'1 2.3
2017-Nov-10 02:28S 30°09' E 031°12'1 2.0
2017-Nov-10 01:58S 30°09' E 031°13'1 1.7
2017-Nov-10 01:28S 30°08' E 031°14'1 1.8
2017-Nov-10 00:58S 30°07' E 031°14'1 1.6
2017-Nov-10 00:31S 30°07' E 031°15'1 1.6
2017-Nov-09 23:58S 30°06' E 031°15'1 1.5
2017-Nov-09 23:28S 30°06' E 031°16'1 1.3
2017-Nov-09 23:00S 30°05' E 031°17'0 0.9
2017-Nov-09 22:31S 30°05' E 031°17'1 1.2
2017-Nov-09 21:55S 30°05' E 031°18'1 1.3
2017-Nov-09 21:28S 30°04' E 031°18'1 1.0
2017-Nov-09 20:58S 30°04' E 031°19'0 1.0
2017-Nov-09 20:30S 30°04' E 031°20'1 1.5
2017-Nov-09 19:58S 30°04' E 031°20'1 1.8
2017-Nov-09 19:31S 30°04' E 031°21'1 2.0
2017-Nov-09 19:01S 30°03' E 031°22'1 2.1
2017-Nov-09 18:28S 30°03' E 031°24'1 1.8
2017-Nov-09 17:58S 30°02' E 031°24'1 1.8
2017-Nov-09 17:28S 30°02' E 031°25'1 1.5
2017-Nov-09 17:01S 30°01' E 031°26'1 1.3
2017-Nov-09 16:30S 30°01' E 031°26'1 1.2
2017-Nov-09 16:01S 30°00' E 031°26'1 2.2
2017-Nov-09 15:30S 29°59' E 031°27'1 1.3
2017-Nov-09 15:00S 29°59' E 031°28'1 1.8
2017-Nov-09 14:30S 29°58' E 031°28'0 0.9
2017-Nov-09 14:00S 29°58' E 031°29'1 1.5
2017-Nov-09 13:30S 29°57' E 031°29'0 0.6
2017-Nov-09 13:00S 29°57' E 031°29'1 1.2
2017-Nov-09 12:30S 29°57' E 031°30'1 1.1
2017-Nov-09 12:00S 29°56' E 031°30'1 1.3
2017-Nov-09 11:30S 29°56' E 031°30'1 1.4
2017-Nov-09 11:00S 29°55' E 031°31'0 0.4
2017-Nov-09 10:30S 29°56' E 031°31'1 2.0
2017-Nov-09 10:00S 29°55' E 031°32'0 0.1
2017-Nov-09 09:30S 29°55' E 031°32'1 2.0
2017-Nov-09 09:00S 29°54' E 031°32'0 0.4
2017-Nov-09 08:30S 29°54' E 031°32'1 1.7
2017-Nov-09 08:00S 29°53' E 031°32'0 0.3
2017-Nov-09 07:30S 29°53' E 031°32'  

Dump ship's entire track history